This is the latest recevied weather packets stored in our database for station/object BMCB-31. If no packets are shown the sender has not sent any weather packets the latest 10 day(s).
| Time | Temp. | Humidity | Pressure | Rain* | Wind** | Luminosity | Snow |
|---|---|---|---|---|---|---|---|
| 1777926661 | 11.11° C | 95% | 1015.1 hPa | 0 mm | - | 0 W/m² | - |
| 1777924259 | 11.11° C | 95% | 1015.1 hPa | 0 mm | - | 0 W/m² | - |
| 1777920057 | 11.67° C | 95% | 1014.9 hPa | 0 mm | - | 6 W/m² | - |
| 1777918263 | 11.67° C | 94% | 1014.8 hPa | 0 mm | - | 12 W/m² | - |
| 1777914658 | 12.78° C | 93% | 1015 hPa | 0 mm | - | 34 W/m² | - |
| 1777909263 | 12.78° C | 91% | 1015.2 hPa | 0.25 mm | - | 114 W/m² | - |
| 1777907459 | 12.78° C | 92% | 1015.3 hPa | 0.25 mm | - | 142 W/m² | - |
| 1777897254 | 15° C | 85% | 1015.5 hPa | 0 mm | - | 124 W/m² | - |
| 1777890657 | 15.56° C | 80% | 1015.6 hPa | 0 mm | - | 200 W/m² | - |
| 1777890056 | 15.56° C | 80% | 1015.7 hPa | 0 mm | - | 220 W/m² | - |
| 1777888854 | 15° C | 81% | 1015.7 hPa | 0 mm | - | 210 W/m² | - |
| 1777881657 | 13.89° C | 82% | 1015.8 hPa | 0 mm | - | 280 W/m² | - |
| 1777879257 | 13.89° C | 82% | 1015.5 hPa | 0 mm | - | 312 W/m² | - |
| 1777878658 | 13.89° C | 82% | 1015.6 hPa | 0 mm | - | 308 W/m² | - |
| 1777878056 | 13.33° C | 83% | 1015.6 hPa | 0 mm | - | 270 W/m² | - |
| 1777877456 | 13.33° C | 84% | 1015.6 hPa | 0 mm | - | 218 W/m² | - |
| 1777876858 | 12.78° C | 84% | 1015.4 hPa | 0 mm | - | 200 W/m² | - |
| 1777872055 | 10.56° C | 92% | 1015.3 hPa | 0 mm | - | 24 W/m² | - |
| 1777871457 | 10° C | 93% | 1015.2 hPa | 0 mm | - | 48 W/m² | - |
| 1777869658 | 9.44° C | 95% | 1015.2 hPa | 0 mm | - | 16 W/m² | - |
| 1777867857 | 9.44° C | 93% | 1015 hPa | 0 mm | - | 2 W/m² | - |
| 1777862453 | 11.11° C | 88% | 1014.9 hPa | 0 mm | - | 0 W/m² | - |
| 1777861856 | 11.11° C | 88% | 1014.8 hPa | 0 mm | - | 0 W/m² | - |
| 1777861257 | 11.11° C | 87% | 1014.9 hPa | 0 mm | - | 0 W/m² | - |
| 1777857058 | 11.67° C | 88% | 1014.9 hPa | 0 mm | - | 0 W/m² | - |
* Rain latest hour (hover to see other rain measurements)
** Current wind speed in m/s (hover to see current wind gust speed)